Flight Track Log - Related Links

Times and Time Zones

All times are in EDT time to prevent confusion due to time zone crossing. See the EGF3776 flight status page for this flight to view local times or setup timezone preferences in your user account.

Time Position Orientation Groundspeed Altitude Reporting Facility
EDT Latitude Longitude Course Direction KTS MPH feet Rate Location/Type
Tue 11:22:05 PM 41.9500 -87.9000 78° East 171 197 1,300  Level Chicago TRACON
Tue 11:23:11 PM 41.9167 -87.8500 132° Southeast 210 242 3,300 1,750 Climbing Chicago TRACON
Tue 11:23:41 PM 41.9275 -87.8128 69° East 225 259 4,100 1,582 Climbing Chicago Center
Tue 11:24:42 PM 41.9286 -87.7114 89° East 257 296 5,700 1,721 Climbing Chicago Center
Tue 11:25:43 PM 41.9514 -87.6072 74° East 294 338 7,600 1,820 Climbing Chicago Center
Tue 11:26:00 PM 42.0573 -87.3197 78° East  Level FlightAware Approximate
Tue 11:26:44 PM 41.9833 -87.5044 67° East 298 343 9,400  Level Chicago Center
Tue 11:27:00 PM 42.0799 -87.1724 78° East  Level FlightAware Approximate
Tue 11:27:45 PM 42.0147 -87.3969 69° East 307 353 11,200  Level Chicago Center
Tue 11:28:46 PM 42.0483 -87.2869 68° East 316 364 12,800 1,623 Climbing Chicago Center
Tue 11:29:47 PM 42.0817 -87.1675 69° East 338 389 14,500 1,525 Climbing Chicago Center
Tue 11:30:48 PM 42.1153 -87.0456 70° East 347 399 15,900 1,426 Climbing Chicago Center
Tue 11:31:49 PM 42.1197 -86.9078 87° East 374 430 17,400 1,574 Climbing Chicago Center
Tue 11:32:50 PM 42.1228 -86.7642 88° East 384 442 19,100 1,721 Climbing Chicago Center
Tue 11:33:51 PM 42.1275 -86.6197 87° East 382 440 20,900 1,756 Climbing Chicago Center
Tue 11:34:53 PM 42.1336 -86.4775 87° East 382 440 22,700 1,902 Climbing Chicago Center
Tue 11:35:54 PM 42.1114 -86.3106 100° East 379 436 24,800 1,918 Climbing Chicago Center
Tue 11:36:55 PM 42.0928 -86.1717 100° East 376 433 26,600 1,721 Climbing Chicago Center
Tue 11:37:56 PM 42.0733 -86.0344 101° East 373 429 28,300 1,180 Climbing Chicago Center
Tue 11:38:57 PM 42.0544 -85.9094 101° East 372 428 29,000 344 Climbing Chicago Center
Tue 11:39:58 PM 42.0331 -85.7556 101° East 415 478 29,000  Level Chicago Center
Tue 11:40:59 PM 42.0094 -85.5894 101° East 451 519 29,000  Level Chicago Center
Tue 11:42:00 PM 41.9819 -85.3914 101° East 485 558 29,000  Level Chicago Center
Tue 11:43:01 PM 41.9544 -85.2047 101° East 502 578 29,000  Level Chicago Center
Tue 11:44:02 PM 41.9275 -85.0161 101° East 509 586 29,000  Level Chicago Center
Tue 11:45:03 PM 41.8992 -84.8272 101° East 515 593 29,000  Level Chicago Center
Tue 11:46:04 PM 41.8706 -84.6375 101° East 517 595 29,000  Level Chicago Center
Tue 11:46:31 PM 41.8581 -84.5508 101° East 511 588 29,000  Level Cleveland Center
Tue 11:47:31 PM 41.8289 -84.3622 102° East 511 588 29,000  Level Cleveland Center
Tue 11:48:31 PM 41.7939 -84.1539 103° East 511 588 29,000  Level Cleveland Center
Tue 11:49:31 PM 41.7656 -83.9825 102° East 511 588 29,000  Level Cleveland Center
Tue 11:50:31 PM 41.7356 -83.7944 102° East 511 588 29,000 -700 Level Cleveland Center
Tue 11:51:31 PM 41.7053 -83.6094 102° East 511 588 27,600 -2,200 Descending Cleveland Center
Tue 11:52:31 PM 41.6764 -83.4300 102° East 506 582 24,600 -2,950 Descending Cleveland Center
Tue 11:53:31 PM 41.6494 -83.2592 102° East 491 565 21,700 -3,100 Descending Cleveland Center
Tue 11:54:31 PM 41.6181 -83.0719 103° East 472 543 18,400 -3,097 Descending Cleveland Center
Tue 11:55:04 PM 41.6053 -82.9881 101° East 458 527 16,900 -2,500 Descending Cleveland Center
Tue 11:55:31 PM 41.5919 -82.9264 106° East 460 529 15,900 -2,354 Descending Cleveland Center
Tue 11:56:23 PM 41.5681 -82.7731 102° East 420 483 13,800 -2,094 Descending Cleveland Center
Tue 11:57:17 PM 41.5472 -82.6475 102° East 400 460 12,200 -1,357 Descending Cleveland Center
Tue 11:58:18 PM 41.5206 -82.5078 104° East 396 456 11,200 -689 Descending Cleveland Center
Tue 11:59:19 PM 41.4961 -82.3547 102° East 391 450 10,800 -793 Descending Cleveland Center
Wed 12:00:19 AM 41.4747 -82.2375 104° East 308 354 9,600 -1,488 Descending Cleveland Center
Wed 12:01:20 AM 41.4639 -82.1236 97° East 309 356 7,800 -1,672 Descending Cleveland Center
Wed 12:02:21 AM 41.4819 -82.0217 77° East 286 329 6,200 -1,565 Descending Cleveland Center
Wed 12:03:15 AM 41.5058 -81.9278 71° East 280 322 4,800 -1,457 Descending Cleveland Center
Wed 12:03:31 AM 41.5083 -81.9003 83° East 282 325 4,500 -1,082 Descending Cleveland Center
Wed 12:04:16 AM 41.5236 -81.8339 73° East 257 296 3,700 -1,000 Descending Cleveland Center
Wed 12:04:31 AM 41.5281 -81.8092 76° East 268 308 3,500 -800 Descending Cleveland Center

Login

Don't have an account? Register now (free) for customized features, flight alerts, and more!